createdAt,value
2023-03-05T00:01:55.411Z,1.50
2023-03-05T00:04:22.330Z,1.40
2023-03-05T00:06:48.980Z,1.50
2023-03-05T00:09:15.647Z,1.50
2023-03-05T00:11:42.384Z,1.55
2023-03-05T00:14:10.497Z,1.17
2023-03-05T00:16:36.951Z,1.35
2023-03-05T00:19:03.875Z,1.05
2023-03-05T00:21:35.871Z,1.40
2023-03-05T00:24:06.415Z,1.50
2023-03-05T00:26:35.912Z,1.38
2023-03-05T00:29:03.062Z,1.10
2023-03-05T00:31:31.988Z,1.10
2023-03-05T00:34:02.482Z,1.52
2023-03-05T00:36:29.790Z,1.20
2023-03-05T00:38:56.505Z,1.38
2023-03-05T00:41:23.371Z,1.60
2023-03-05T00:43:50.126Z,1.30
2023-03-05T00:46:17.284Z,1.33
2023-03-05T00:48:44.005Z,1.58
2023-03-05T00:51:10.873Z,1.52
2023-03-05T00:53:37.736Z,1.20
2023-03-05T00:56:04.688Z,1.60
2023-03-05T00:58:31.309Z,1.40
2023-03-05T01:01:00.125Z,1.50
2023-03-05T01:03:26.616Z,1.75
2023-03-05T01:05:53.198Z,1.73
2023-03-05T01:08:20.206Z,2.05
2023-03-05T01:10:46.877Z,1.60
2023-03-05T01:13:13.402Z,1.92
2023-03-05T01:15:39.945Z,1.73
2023-03-05T01:18:06.421Z,1.67
2023-03-05T01:20:34.697Z,1.52
2023-03-05T01:23:01.878Z,2.22
2023-03-05T01:25:28.574Z,1.33
2023-03-05T01:27:55.059Z,1.83
2023-03-05T01:30:21.616Z,1.90
2023-03-05T01:32:48.164Z,1.63
2023-03-05T01:35:21.199Z,1.73
2023-03-05T01:37:48.066Z,1.70
2023-03-05T01:40:18.454Z,1.67
2023-03-05T01:42:47.091Z,2.10
2023-03-05T01:47:41.986Z,2.08
2023-03-05T01:50:12.945Z,1.40
2023-03-05T01:52:43.617Z,1.55
2023-03-05T01:55:15.025Z,1.58
2023-03-05T01:57:45.808Z,1.30
2023-03-05T02:00:22.404Z,1.63
2023-03-05T02:02:51.255Z,1.50
2023-03-05T02:05:28.978Z,1.42
2023-03-05T02:08:00.087Z,1.60
2023-03-05T02:10:30.379Z,1.25
2023-03-05T02:13:00.648Z,1.67
2023-03-05T02:15:28.091Z,1.80
2023-03-05T02:17:54.682Z,1.52
2023-03-05T02:20:27.823Z,1.63
2023-03-05T02:22:54.550Z,1.70
2023-03-05T02:25:27.513Z,1.73
2023-03-05T02:27:59.980Z,1.75
2023-03-05T02:30:26.832Z,1.40
2023-03-05T02:32:53.460Z,1.70
2023-03-05T02:35:20.158Z,2.40
2023-03-05T02:37:46.795Z,2.13
2023-03-05T02:40:14.316Z,2.03
2023-03-05T02:42:41.654Z,3.95
2023-03-05T02:45:09.427Z,2.35
2023-03-05T02:47:36.064Z,2.00
2023-03-05T02:50:04.049Z,2.20
2023-03-05T02:52:31.927Z,1.83
2023-03-05T02:54:58.512Z,2.00
2023-03-05T02:57:25.131Z,2.40
2023-03-05T02:59:51.961Z,2.10
2023-03-05T03:02:18.750Z,2.25
2023-03-05T03:04:45.843Z,1.95
2023-03-05T03:07:14.079Z,1.92
2023-03-05T03:09:42.915Z,2.08
2023-03-05T03:12:10.546Z,2.30
2023-03-05T03:14:41.303Z,2.28
2023-03-05T03:17:16.346Z,2.03
2023-03-05T03:19:44.115Z,1.83
2023-03-05T03:22:12.081Z,1.90
2023-03-05T03:24:40.057Z,2.17
2023-03-05T03:27:07.224Z,2.05
2023-03-05T03:29:33.988Z,1.83
2023-03-05T03:32:00.526Z,1.70
2023-03-05T03:34:27.842Z,1.88
2023-03-05T03:36:54.602Z,1.58
2023-03-05T03:39:21.460Z,1.70
2023-03-05T03:41:52.349Z,1.70
2023-03-05T03:44:20.406Z,1.92
2023-03-05T03:46:48.867Z,1.95
2023-03-05T03:49:19.190Z,1.83
2023-03-05T03:51:47.173Z,1.70
2023-03-05T03:54:14.869Z,1.90
2023-03-05T03:56:42.079Z,1.48
2023-03-05T03:59:08.859Z,1.85
2023-03-05T04:01:35.783Z,1.70
2023-03-05T04:04:02.494Z,1.80
2023-03-05T04:06:28.966Z,1.35
2023-03-05T04:08:55.526Z,1.70
2023-03-05T04:11:22.008Z,1.33
2023-03-05T04:13:49.345Z,1.50
2023-03-05T04:16:16.535Z,1.48
2023-03-05T04:18:43.487Z,1.50
2023-03-05T04:21:10.353Z,1.85
2023-03-05T04:23:37.124Z,1.50
2023-03-05T04:26:04.100Z,1.20
2023-03-05T04:28:31.173Z,1.40
2023-03-05T04:30:57.792Z,1.30
2023-03-05T04:33:24.484Z,1.17
2023-03-05T04:35:51.366Z,1.30
2023-03-05T04:38:18.185Z,1.10
2023-03-05T04:40:46.041Z,1.38
2023-03-05T04:43:12.569Z,1.13
2023-03-05T04:45:43.490Z,1.45
2023-03-05T04:48:10.968Z,1.35
2023-03-05T04:50:37.853Z,1.73
2023-03-05T04:53:04.941Z,1.25
2023-03-05T04:55:31.459Z,1.40
2023-03-05T04:57:59.160Z,1.88
2023-03-05T05:00:25.690Z,1.45
2023-03-05T05:02:53.051Z,1.40
2023-03-05T05:05:23.277Z,1.15
2023-03-05T05:07:50.288Z,1.00
2023-03-05T05:10:17.335Z,1.23
2023-03-05T05:12:43.849Z,1.20
2023-03-05T05:15:12.026Z,1.10
2023-03-05T05:17:38.806Z,1.15
2023-03-05T05:20:06.724Z,1.20
2023-03-05T05:22:33.429Z,1.20
2023-03-05T05:25:00.096Z,1.00
2023-03-05T05:27:26.551Z,1.20
2023-03-05T05:29:53.067Z,1.00
2023-03-05T05:32:22.337Z,1.17
2023-03-05T05:34:49.314Z,0.95
2023-03-05T05:37:15.753Z,1.00
2023-03-05T05:39:42.297Z,0.98
2023-03-05T05:42:08.820Z,1.10
2023-03-05T05:44:35.389Z,0.80
2023-03-05T05:47:02.006Z,0.93
2023-03-05T05:49:28.883Z,1.35
2023-03-05T05:51:55.454Z,1.00
2023-03-05T05:54:21.923Z,1.30
2023-03-05T05:56:48.469Z,0.98
2023-03-05T05:59:15.032Z,1.13
2023-03-05T06:01:41.544Z,1.27
2023-03-05T06:04:08.019Z,1.77
2023-03-05T06:06:35.043Z,1.60
2023-03-05T06:09:02.462Z,1.58
2023-03-05T06:11:29.059Z,1.20
2023-03-05T06:13:55.745Z,1.13
2023-03-05T06:16:24.453Z,1.55
2023-03-05T06:18:52.360Z,1.27
2023-03-05T06:21:22.142Z,1.30
2023-03-05T06:23:49.720Z,1.45
2023-03-05T06:26:19.382Z,1.35
2023-03-05T06:28:46.329Z,1.30
2023-03-05T06:31:14.110Z,1.40
2023-03-05T06:33:41.799Z,1.25
2023-03-05T06:36:11.731Z,1.42
2023-03-05T06:38:38.894Z,1.42
2023-03-05T06:41:14.403Z,1.17
2023-03-05T06:43:43.788Z,1.42
2023-03-05T06:46:16.527Z,1.45
2023-03-05T06:48:43.563Z,1.52
2023-03-05T06:51:22.312Z,1.45
2023-03-05T06:53:49.809Z,1.35
2023-03-05T06:56:17.772Z,1.48
2023-03-05T06:58:46.319Z,1.40
2023-03-05T07:01:14.330Z,1.52
2023-03-05T07:03:42.223Z,1.60
2023-03-05T07:06:12.437Z,1.92
2023-03-05T07:08:39.672Z,1.67
2023-03-05T07:11:11.145Z,1.70
2023-03-05T07:13:37.625Z,1.92
2023-03-05T07:16:08.927Z,1.70
2023-03-05T07:18:35.733Z,1.73
2023-03-05T07:21:07.583Z,1.63
2023-03-05T07:23:35.223Z,1.58
2023-03-05T07:26:03.433Z,1.48
2023-03-05T07:28:30.103Z,1.60
2023-03-05T07:31:08.652Z,1.63
2023-03-05T07:33:37.211Z,1.52
2023-03-05T07:38:39.776Z,1.23
2023-03-05T07:41:09.388Z,1.33
2023-03-05T07:43:36.363Z,1.20
2023-03-05T07:46:12.678Z,1.13
2023-03-05T07:48:39.386Z,1.40
2023-03-05T07:51:08.741Z,1.30
2023-03-05T07:53:35.559Z,1.02
2023-03-05T07:56:02.294Z,1.30
2023-03-05T07:58:29.368Z,1.20
2023-03-05T08:00:55.995Z,1.10
2023-03-05T08:03:22.569Z,1.00
2023-03-05T08:05:49.169Z,1.10
2023-03-05T08:08:16.532Z,0.95
2023-03-05T08:10:43.341Z,1.02
2023-03-05T08:13:10.043Z,1.20
2023-03-05T08:15:39.553Z,0.93
2023-03-05T08:18:06.163Z,2.33
2023-03-05T08:20:35.559Z,1.27
2023-03-05T08:23:06.263Z,1.80
2023-03-05T08:25:32.883Z,2.17
2023-03-05T08:28:00.368Z,5.30
2023-03-05T08:30:27.628Z,4.68
2023-03-05T08:32:54.854Z,1.33
2023-03-05T08:35:21.912Z,1.50
2023-03-05T08:37:48.649Z,1.35
2023-03-05T08:40:17.915Z,1.58
2023-03-05T08:42:44.567Z,1.38
2023-03-05T08:45:11.843Z,2.13
2023-03-05T08:47:38.503Z,2.00
2023-03-05T08:50:05.737Z,1.20
2023-03-05T08:52:32.292Z,2.90
2023-03-05T08:54:58.862Z,1.42
2023-03-05T08:57:25.462Z,1.30
2023-03-05T08:59:52.045Z,1.23
2023-03-05T09:02:18.474Z,1.50
2023-03-05T09:04:44.974Z,1.52
2023-03-05T09:07:11.643Z,1.20
2023-03-05T09:09:38.172Z,1.30
2023-03-05T09:12:04.838Z,1.58
2023-03-05T09:14:31.414Z,1.30
2023-03-05T09:16:58.304Z,1.45
2023-03-05T09:19:25.243Z,1.60
2023-03-05T09:21:51.707Z,1.20
2023-03-05T09:24:18.343Z,1.42
2023-03-05T09:26:44.972Z,1.20
2023-03-05T09:29:12.464Z,1.60
2023-03-05T09:31:39.707Z,1.17
2023-03-05T09:34:08.294Z,1.55
2023-03-05T09:36:35.400Z,1.20
2023-03-05T09:39:01.979Z,1.40
2023-03-05T09:42:06.151Z,1.25
2023-03-05T09:45:11.490Z,1.33
2023-03-05T09:47:44.913Z,1.30
2023-03-05T09:50:32.500Z,1.45
2023-03-05T09:53:21.939Z,1.40
2023-03-05T09:55:54.371Z,1.10
2023-03-05T09:58:32.975Z,1.20
2023-03-05T10:01:08.839Z,1.30
2023-03-05T10:03:54.447Z,1.20
2023-03-05T10:06:47.424Z,1.33
2023-03-05T10:12:07.375Z,1.00
2023-03-05T10:14:38.314Z,1.23
2023-03-05T10:17:26.938Z,1.85
2023-03-05T10:20:18.345Z,1.40
2023-03-05T10:23:13.116Z,1.23
2023-03-05T10:26:03.180Z,0.82
2023-03-05T10:28:48.466Z,1.20
2023-03-05T10:31:46.768Z,1.20
2023-03-05T10:34:38.159Z,0.93
2023-03-05T10:37:04.549Z,0.90
2023-03-05T10:39:46.163Z,0.90
2023-03-05T10:42:34.004Z,0.98
2023-03-05T10:45:13.982Z,1.00
2023-03-05T10:47:55.736Z,0.80
2023-03-05T10:50:25.361Z,0.70
2023-03-05T10:53:04.547Z,0.80
2023-03-05T10:55:31.004Z,0.80
2023-03-05T10:57:57.458Z,0.90
2023-03-05T11:00:28.341Z,0.80
2023-03-05T11:03:04.069Z,0.90
2023-03-05T11:05:37.051Z,0.70
2023-03-05T11:08:40.246Z,1.00
2023-03-05T11:11:09.640Z,0.95
2023-03-05T11:13:38.772Z,2.65
2023-03-05T11:16:07.281Z,1.00
2023-03-05T11:18:34.822Z,1.20
2023-03-05T11:21:19.537Z,0.80
2023-03-05T11:24:09.057Z,0.80
2023-03-05T11:26:35.881Z,0.70
2023-03-05T11:29:04.966Z,0.70
2023-03-05T11:31:33.542Z,0.70
2023-03-05T11:34:04.670Z,0.70
2023-03-05T11:36:37.136Z,0.80
2023-03-05T11:39:07.386Z,0.80
2023-03-05T11:41:45.274Z,0.82
2023-03-05T11:44:16.406Z,0.80
2023-03-05T11:47:25.026Z,0.80
2023-03-05T11:49:57.662Z,0.80
2023-03-05T11:52:33.643Z,0.93
2023-03-05T11:55:14.154Z,0.93
2023-03-05T11:57:45.841Z,0.90
2023-03-05T12:00:19.189Z,0.60
2023-03-05T12:02:50.256Z,0.60
2023-03-05T12:05:17.500Z,0.50
2023-03-05T12:07:50.008Z,0.85
2023-03-05T12:10:20.110Z,0.55
2023-03-05T12:13:15.247Z,0.60
2023-03-05T12:15:54.851Z,0.80
2023-03-05T12:18:47.717Z,0.60
2023-03-05T12:24:05.003Z,0.90
2023-03-05T12:26:59.463Z,0.80
2023-03-05T12:29:46.492Z,0.70
2023-03-05T12:32:22.023Z,0.90
2023-03-05T12:34:58.174Z,1.00
2023-03-05T12:37:24.810Z,0.73
2023-03-05T12:39:58.122Z,0.82
2023-03-05T12:42:30.716Z,0.70
2023-03-05T12:45:09.660Z,0.73
2023-03-05T12:47:38.371Z,2.80
2023-03-05T12:50:26.488Z,1.83
2023-03-05T12:52:56.457Z,1.00
2023-03-05T12:55:33.574Z,1.00
2023-03-05T12:58:07.400Z,1.20
2023-03-05T13:00:44.854Z,0.70
2023-03-05T13:03:18.128Z,0.88
2023-03-05T13:05:51.278Z,0.90
2023-03-05T13:08:21.150Z,1.00
2023-03-05T13:11:03.039Z,14.57
2023-03-05T13:13:33.451Z,1.33
2023-03-05T13:16:01.208Z,0.80
2023-03-05T13:18:36.811Z,0.82
2023-03-05T13:21:06.832Z,0.90
2023-03-05T13:23:34.915Z,1.05
2023-03-05T13:26:15.216Z,1.30
2023-03-05T13:28:44.938Z,1.00
2023-03-05T13:31:23.108Z,0.90
2023-03-05T13:34:14.404Z,0.60
2023-03-05T13:36:46.286Z,0.75
2023-03-05T13:39:23.059Z,0.73
2023-03-05T13:41:58.767Z,0.60
2023-03-05T13:44:25.314Z,0.80
2023-03-05T13:46:51.941Z,0.70
2023-03-05T13:49:23.046Z,1.60
2023-03-05T13:51:54.996Z,2.03
2023-03-05T13:54:23.585Z,0.90
2023-03-05T13:56:56.476Z,0.70
2023-03-05T13:59:26.058Z,0.73
2023-03-05T14:01:53.136Z,0.85
2023-03-05T14:04:26.584Z,0.80
2023-03-05T14:07:01.155Z,0.77
2023-03-05T14:12:00.349Z,0.90
2023-03-05T14:14:29.194Z,1.20
2023-03-05T14:16:56.041Z,1.15
2023-03-05T14:19:38.608Z,1.25
2023-03-05T14:22:06.420Z,1.15
2023-03-05T14:24:34.036Z,1.17
2023-03-05T14:27:07.782Z,1.08
2023-03-05T14:29:35.031Z,0.90
2023-03-05T14:32:18.567Z,2.47
2023-03-05T14:34:52.663Z,1.50
2023-03-05T14:37:26.686Z,1.30
2023-03-05T14:39:56.513Z,1.30
2023-03-05T14:42:39.074Z,1.50
2023-03-05T14:45:13.645Z,0.98
2023-03-05T14:47:40.712Z,1.10
2023-03-05T14:50:18.461Z,1.20
2023-03-05T14:52:46.987Z,1.10
2023-03-05T14:57:41.385Z,1.35
2023-03-05T15:00:18.193Z,1.60
2023-03-05T15:02:44.859Z,1.70
2023-03-05T15:05:11.589Z,1.70
2023-03-05T15:07:38.659Z,1.65
2023-03-05T15:10:07.722Z,2.20
2023-03-05T15:12:34.901Z,1.90
2023-03-05T15:15:01.536Z,1.92
2023-03-05T15:17:31.253Z,1.90
2023-03-05T15:19:58.101Z,3.53
2023-03-05T15:22:24.771Z,4.53
2023-03-05T15:24:51.280Z,4.90
2023-03-05T15:27:17.980Z,3.45
2023-03-05T15:29:44.758Z,3.90
2023-03-05T15:32:11.503Z,5.53
2023-03-05T15:34:38.374Z,4.85
2023-03-05T15:37:04.917Z,3.72
2023-03-05T15:39:31.611Z,10.60
2023-03-05T15:41:58.617Z,6.82
2023-03-05T15:44:25.409Z,2.92
2023-03-05T15:46:52.193Z,3.55
2023-03-05T15:49:19.254Z,3.17
2023-03-05T15:51:45.793Z,3.20
2023-03-05T15:54:12.428Z,4.63
2023-03-05T15:56:40.579Z,6.30
2023-03-05T15:59:07.857Z,3.58
2023-03-05T16:01:34.443Z,3.13
2023-03-05T16:04:01.105Z,4.32
2023-03-05T16:06:28.943Z,2.65
2023-03-05T16:09:01.829Z,3.65
2023-03-05T16:11:29.507Z,5.18
2023-03-05T16:13:57.521Z,3.90
2023-03-05T16:16:25.412Z,2.70
2023-03-05T16:18:53.593Z,2.75
2023-03-05T16:21:20.202Z,4.10
2023-03-05T16:23:46.736Z,6.63
2023-03-05T16:26:13.367Z,4.13
2023-03-05T16:28:40.045Z,2.72
2023-03-05T16:31:06.779Z,4.55
2023-03-05T16:33:33.456Z,3.33
2023-03-05T16:36:23.075Z,5.97
2023-03-05T16:38:52.170Z,4.00
2023-03-05T16:41:21.959Z,3.33
2023-03-05T16:43:50.688Z,3.53
2023-03-05T16:46:17.456Z,3.20
2023-03-05T16:48:44.210Z,2.95
2023-03-05T16:51:11.988Z,3.03
2023-03-05T16:53:39.453Z,2.83
2023-03-05T16:56:07.921Z,3.03
2023-03-05T16:58:35.878Z,3.20
2023-03-05T17:01:03.495Z,3.33
2023-03-05T17:03:30.360Z,3.10
2023-03-05T17:05:56.906Z,3.72
2023-03-05T17:08:24.404Z,2.70
2023-03-05T17:10:51.489Z,4.63
2023-03-05T17:13:18.158Z,1.77
2023-03-05T17:15:44.762Z,3.00
2023-03-05T17:18:11.671Z,4.78
2023-03-05T17:20:38.323Z,2.70
2023-03-05T17:23:04.849Z,1.55
2023-03-05T17:25:31.673Z,1.60
2023-03-05T17:27:58.315Z,2.40
2023-03-05T17:30:25.053Z,1.98
2023-03-05T17:32:54.849Z,2.58
2023-03-05T17:35:22.563Z,3.90
2023-03-05T17:37:50.327Z,2.35
2023-03-05T17:40:17.274Z,2.38
2023-03-05T17:42:43.792Z,5.53
2023-03-05T17:45:10.634Z,3.20
2023-03-05T17:47:37.226Z,6.05
2023-03-05T17:50:04.219Z,5.57
2023-03-05T17:52:31.115Z,6.97
2023-03-05T17:54:58.419Z,4.50
2023-03-05T17:57:25.976Z,5.88
2023-03-05T17:59:52.730Z,4.05
2023-03-05T18:02:19.144Z,3.70
2023-03-05T18:04:47.853Z,3.10
2023-03-05T18:07:14.535Z,6.55
2023-03-05T18:09:40.963Z,2.85
2023-03-05T18:12:07.520Z,2.45
2023-03-05T18:14:34.152Z,2.30
2023-03-05T18:17:00.813Z,2.40
2023-03-05T18:19:27.318Z,2.33
2023-03-05T18:21:53.844Z,2.90
2023-03-05T18:24:20.416Z,2.05
2023-03-05T18:26:46.922Z,2.67
2023-03-05T18:29:13.438Z,3.40
2023-03-05T18:31:40.019Z,3.78
2023-03-05T18:34:06.488Z,2.63
2023-03-05T18:36:33.140Z,2.05
2023-03-05T18:38:59.635Z,1.55
2023-03-05T18:41:28.042Z,3.58
2023-03-05T18:43:54.947Z,3.38
2023-03-05T18:46:21.430Z,1.50
2023-03-05T18:48:48.193Z,3.45
2023-03-05T18:51:17.945Z,2.10
2023-03-05T18:53:44.921Z,2.28
2023-03-05T18:56:11.844Z,3.13
2023-03-05T18:58:39.559Z,2.42
2023-03-05T19:01:06.749Z,2.85
2023-03-05T19:03:33.320Z,3.20
2023-03-05T19:05:59.776Z,2.30
2023-03-05T19:08:26.304Z,3.13
2023-03-05T19:10:53.116Z,4.80
2023-03-05T19:13:35.743Z,5.22
2023-03-05T19:16:33.648Z,4.30
2023-03-05T19:19:16.442Z,3.70
2023-03-05T19:21:45.322Z,3.90
2023-03-05T19:24:13.878Z,2.15
2023-03-05T19:29:08.405Z,3.33
2023-03-05T19:31:35.808Z,4.13
2023-03-05T19:34:03.491Z,4.68
2023-03-05T19:36:31.569Z,13.15
2023-03-05T19:38:58.782Z,5.57
2023-03-05T19:41:26.267Z,9.98
2023-03-05T19:43:52.759Z,5.22
2023-03-05T19:46:19.365Z,3.78
2023-03-05T19:48:46.436Z,2.42
2023-03-05T19:51:16.552Z,3.75
2023-03-05T19:53:43.136Z,4.55
2023-03-05T19:56:10.413Z,3.53
2023-03-05T19:58:37.130Z,3.63
2023-03-05T20:01:20.405Z,4.63
2023-03-05T20:03:48.913Z,6.78
2023-03-05T20:06:16.120Z,7.22
2023-03-05T20:08:43.072Z,3.00
2023-03-05T20:11:11.877Z,6.80
2023-03-05T20:13:38.719Z,15.80
2023-03-05T20:16:13.089Z,8.93
2023-03-05T20:18:40.193Z,3.30
2023-03-05T20:21:06.741Z,3.03
2023-03-05T20:23:33.218Z,2.50
2023-03-05T20:25:59.670Z,1.92
2023-03-05T20:28:26.272Z,2.13
2023-03-05T20:30:57.435Z,1.95
2023-03-05T20:33:25.149Z,3.17
2023-03-05T20:35:53.292Z,1.90
2023-03-05T20:38:22.770Z,7.00
2023-03-05T20:40:54.482Z,5.00
2023-03-05T20:43:22.752Z,3.15
2023-03-05T20:45:49.903Z,2.38
2023-03-05T20:48:16.786Z,2.22
2023-03-05T20:50:43.580Z,2.25
2023-03-05T20:53:10.160Z,2.08
2023-03-05T20:55:36.718Z,1.95
2023-03-05T20:58:03.472Z,2.17
2023-03-05T21:00:30.264Z,2.03
2023-03-05T21:02:57.234Z,1.90
2023-03-05T21:05:26.283Z,2.20
2023-03-05T21:07:53.256Z,2.42
2023-03-05T21:10:20.783Z,2.53
2023-03-05T21:12:48.820Z,3.33
2023-03-05T21:15:18.644Z,2.28
2023-03-05T21:17:45.439Z,2.00
2023-03-05T21:20:14.714Z,1.83
2023-03-05T21:22:41.295Z,2.53
2023-03-05T21:25:21.135Z,2.10
2023-03-05T21:27:57.350Z,1.98
2023-03-05T21:30:33.498Z,2.05
2023-03-05T21:33:05.620Z,1.90
2023-03-05T21:35:33.148Z,2.38
2023-03-05T21:38:06.183Z,2.92
2023-03-05T21:40:35.490Z,1.92
2023-03-05T21:43:02.376Z,2.13
2023-03-05T21:45:30.251Z,2.20
2023-03-05T21:47:59.161Z,2.60
2023-03-05T21:50:26.030Z,2.15
2023-03-05T21:52:52.980Z,2.30
2023-03-05T21:55:22.664Z,2.05
2023-03-05T21:57:49.296Z,2.30
2023-03-05T22:00:18.153Z,1.77
2023-03-05T22:02:45.945Z,2.28
2023-03-05T22:05:15.397Z,2.25
2023-03-05T22:07:42.700Z,2.10
2023-03-05T22:10:15.222Z,2.45
2023-03-05T22:13:03.392Z,2.30
2023-03-05T22:15:29.922Z,2.30
2023-03-05T22:17:56.384Z,2.20
2023-03-05T22:20:22.909Z,2.33
2023-03-05T22:22:49.397Z,2.10
2023-03-05T22:25:16.319Z,1.85
2023-03-05T22:27:45.265Z,1.77
2023-03-05T22:30:12.828Z,1.85
2023-03-05T22:32:39.510Z,1.60
2023-03-05T22:35:07.688Z,1.90
2023-03-05T22:37:34.228Z,1.67
2023-03-05T22:40:00.723Z,2.08
2023-03-05T22:42:27.358Z,1.80
2023-03-05T22:44:58.163Z,1.88
2023-03-05T22:47:25.791Z,1.75
2023-03-05T22:49:52.397Z,2.08
2023-03-05T22:52:19.962Z,1.77
2023-03-05T22:54:46.535Z,1.98
2023-03-05T22:57:13.175Z,1.50
2023-03-05T22:59:39.720Z,1.70
2023-03-05T23:02:06.277Z,2.03
2023-03-05T23:04:57.764Z,1.83
2023-03-05T23:07:26.999Z,1.65
2023-03-05T23:09:56.231Z,1.90
2023-03-05T23:12:24.404Z,1.63
2023-03-05T23:14:50.945Z,1.50
2023-03-05T23:17:17.678Z,1.30
2023-03-05T23:19:44.138Z,1.27
2023-03-05T23:22:13.494Z,1.35
2023-03-05T23:24:40.552Z,1.35
2023-03-05T23:27:08.822Z,1.80
2023-03-05T23:29:48.180Z,1.58
2023-03-05T23:32:14.806Z,1.60
2023-03-05T23:34:41.336Z,1.70
2023-03-05T23:37:08.013Z,1.90
2023-03-05T23:39:34.458Z,1.92
2023-03-05T23:42:00.867Z,1.90
2023-03-05T23:44:27.473Z,1.63
2023-03-05T23:46:54.021Z,1.90
2023-03-05T23:49:20.726Z,1.50
2023-03-05T23:51:47.410Z,1.70
2023-03-05T23:54:13.957Z,1.70
2023-03-05T23:56:40.614Z,1.70
2023-03-05T23:59:07.223Z,1.42
